Time;durP1;ratioP1;P1;durP2;ratioP2;P2;SDS_P1;SDS_P2;PMS_P1;PMS_P2;Temp;Humidity;BMP_temperature;BMP_pressure;BME280_temperature;BME280_humidity;BME280_pressure;Samples;Min_cycle;Max_cycle;Signal;HPM_P1;HPM_P2
2023/10/24 00:01:41;;;;;;;17.67;2.83;;;11.10;99.90;;;;;;5033128;28;20069;-58
2023/10/24 00:04:08;;;;;;;19.95;2.55;;;11.10;99.90;;;;;;5033080;28;20127;-58
2023/10/24 00:06:35;;;;;;;15.63;2.17;;;11.00;99.90;;;;;;5034099;28;20045;-59
2023/10/24 00:09:04;;;;;;;10.48;2.22;;;11.10;99.90;;;;;;5032925;28;20116;-56
2023/10/24 00:11:32;;;;;;;12.05;2.30;;;11.20;99.90;;;;;;5032922;28;20386;-57
2023/10/24 00:13:59;;;;;;;7.55;2.10;;;11.20;99.90;;;;;;5032819;28;20041;-59
2023/10/24 00:16:26;;;;;;;14.52;2.42;;;11.30;99.90;;;;;;5006996;28;20052;-60
2023/10/24 00:18:53;;;;;;;8.48;2.03;;;11.20;99.90;;;;;;5030310;28;20049;-58
2023/10/24 00:21:20;;;;;;;15.93;1.98;;;11.30;99.90;;;;;;5024785;28;20401;-59
2023/10/24 00:23:47;;;;;;;14.93;2.20;;;11.30;99.90;;;;;;5032459;28;20037;-58
2023/10/24 00:26:13;;;;;;;13.43;2.17;;;11.30;99.90;;;;;;5031891;28;20053;-58
2023/10/24 00:28:45;;;;;;;12.07;2.35;;;11.30;99.90;;;;;;5027541;28;20095;-58
2023/10/24 00:31:12;;;;;;;;;;;11.30;99.90;;;;;;5012761;28;20394;-59
2023/10/24 00:33:39;;;;;;;17.13;2.38;;;11.20;99.90;;;;;;5032808;28;19925;-59
2023/10/24 00:36:06;;;;;;;12.40;2.28;;;11.30;99.90;;;;;;5013707;28;20128;-59
2023/10/24 00:38:33;;;;;;;12.10;2.67;;;11.20;99.90;;;;;;5032558;28;20052;-58
2023/10/24 00:41:00;;;;;;;11.20;2.67;;;11.10;99.90;;;;;;5031506;28;20049;-59
2023/10/24 00:43:27;;;;;;;14.20;2.60;;;11.00;99.90;;;;;;5014619;28;20044;-58
2023/10/24 00:45:54;;;;;;;10.60;2.17;;;10.90;99.90;;;;;;5032252;28;20052;-59
2023/10/24 00:48:21;;;;;;;14.60;2.58;;;10.80;99.90;;;;;;5029460;28;20052;-58
2023/10/24 00:50:48;;;;;;;15.38;2.50;;;10.70;99.90;;;;;;5013833;28;20045;-59
2023/10/24 00:53:15;;;;;;;15.45;2.45;;;10.60;99.90;;;;;;5014325;28;20516;-59
2023/10/24 00:55:42;;;;;;;15.10;2.72;;;10.60;99.90;;;;;;5013086;28;20049;-59
2023/10/24 00:58:09;;;;;;;11.68;2.25;;;10.60;99.90;;;;;;5031904;28;20052;-59
2023/10/24 01:00:37;;;;;;;8.73;2.00;;;10.60;99.90;;;;;;5014226;28;20037;-58
2023/10/24 01:03:04;;;;;;;;;;;10.60;99.90;;;;;;5013675;28;20049;-59
2023/10/24 01:05:31;;;;;;;12.30;2.38;;;10.50;99.90;;;;;;5020943;28;19928;-59
2023/10/24 01:07:58;;;;;;;13.65;3.38;;;10.40;99.90;;;;;;5032087;28;20069;-58
2023/10/24 01:10:25;;;;;;;14.88;2.78;;;10.30;99.90;;;;;;5032149;28;20482;-58
2023/10/24 01:12:52;;;;;;;14.00;2.80;;;10.20;99.90;;;;;;5026304;28;20069;-59
2023/10/24 01:15:19;;;;;;;12.05;2.30;;;10.20;99.90;;;;;;5030512;28;20482;-58
2023/10/24 01:17:53;;;;;;;18.15;2.75;;;10.10;99.90;;;;;;5030393;28;20049;-59
2023/10/24 01:20:19;;;;;;;15.25;2.83;;;10.10;99.90;;;;;;5032065;28;20510;-59
2023/10/24 01:22:47;;;;;;;8.52;2.00;;;10.10;99.90;;;;;;5027865;28;20041;-59
2023/10/24 01:25:15;;;;;;;19.55;2.35;;;10.10;99.90;;;;;;5016270;28;20095;-59
2023/10/24 01:27:43;;;;;;;11.55;1.92;;;10.10;99.90;;;;;;5013839;28;20670;-59
2023/10/24 01:30:12;;;;;;;13.85;2.40;;;10.10;99.90;;;;;;5014183;28;20045;-58
2023/10/24 01:32:39;;;;;;;17.33;2.67;;;10.10;99.90;;;;;;5030836;28;20042;-58
2023/10/24 01:35:06;;;;;;;;;;;10.10;99.90;;;;;;5014358;28;20046;-59
2023/10/24 01:37:33;;;;;;;14.27;2.10;;;10.00;99.90;;;;;;5012533;28;19931;-59
2023/10/24 01:40:00;;;;;;;16.27;2.17;;;10.00;99.90;;;;;;5040107;28;20052;-58
2023/10/24 01:42:26;;;;;;;16.38;2.78;;;10.00;99.90;;;;;;5031540;28;20030;-59
2023/10/24 01:44:53;;;;;;;13.23;2.33;;;9.90;99.90;;;;;;5012875;28;20041;-59
2023/10/24 01:47:20;;;;;;;21.15;2.38;;;9.90;99.90;;;;;;5013552;28;20491;-59
2023/10/24 01:49:47;;;;;;;17.58;2.50;;;9.90;99.90;;;;;;5014007;28;20034;-59
2023/10/24 01:52:14;;;;;;;12.93;2.08;;;9.80;99.90;;;;;;5031810;28;20549;-59
2023/10/24 01:54:41;;;;;;;12.70;2.30;;;9.90;99.90;;;;;;5012540;28;20045;-59
2023/10/24 01:57:08;;;;;;;18.95;2.33;;;9.90;99.90;;;;;;5031541;28;20068;-56
2023/10/24 01:59:34;;;;;;;16.42;2.15;;;9.90;99.90;;;;;;5012872;28;20067;-59
2023/10/24 02:02:01;;;;;;;16.35;2.20;;;9.80;99.90;;;;;;5012972;28;20048;-58
2023/10/24 02:04:28;;;;;;;16.95;2.30;;;9.80;99.90;;;;;;5012593;28;20037;-59
2023/10/24 02:06:56;;;;;;;11.00;2.00;;;9.80;99.90;;;;;;5013698;28;20403;-60
2023/10/24 02:09:22;;;;;;;11.95;2.80;;;9.80;99.90;;;;;;5012429;28;20041;-58
2023/10/24 02:11:49;;;;;;;13.50;2.33;;;9.70;99.90;;;;;;5031749;28;20033;-59
2023/10/24 02:14:16;;;;;;;13.32;4.13;;;9.60;99.90;;;;;;5012443;28;20045;-58
2023/10/24 02:16:43;;;;;;;13.40;2.38;;;9.60;99.90;;;;;;5031324;28;20495;-59
2023/10/24 02:19:09;;;;;;;18.15;2.58;;;9.50;99.90;;;;;;5010342;28;20041;-59
2023/10/24 02:21:36;;;;;;;12.15;2.45;;;9.50;99.90;;;;;;5016864;28;20046;-59
2023/10/24 02:24:03;;;;;;;8.05;1.75;;;9.50;99.90;;;;;;5019701;28;20037;-59
2023/10/24 02:26:30;;;;;;;11.20;2.10;;;9.40;99.90;;;;;;5021298;28;20042;-56
2023/10/24 02:28:57;;;;;;;10.85;2.08;;;9.40;99.90;;;;;;5031316;28;20046;-58
2023/10/24 02:31:24;;;;;;;16.65;2.83;;;9.40;99.90;;;;;;5013168;28;20552;-59
2023/10/24 02:33:52;;;;;;;13.65;2.40;;;9.40;99.90;;;;;;5033774;28;20040;-59
2023/10/24 02:36:18;;;;;;;18.77;2.50;;;9.40;99.90;;;;;;5015065;28;20085;-59
2023/10/24 02:38:45;;;;;;;12.85;2.22;;;9.40;99.90;;;;;;5035282;28;20056;-58
2023/10/24 02:41:12;;;;;;;19.38;2.40;;;9.30;99.90;;;;;;5016171;28;20041;-60
2023/10/24 02:43:39;;;;;;;16.58;2.15;;;9.30;99.90;;;;;;5015805;28;20407;-60
2023/10/24 02:46:06;;;;;;;12.88;2.35;;;9.30;99.90;;;;;;5035026;28;20095;-58
2023/10/24 02:48:33;;;;;;;13.00;2.95;;;9.30;99.90;;;;;;5016137;28;20147;-57
2023/10/24 02:51:00;;;;;;;14.77;2.60;;;9.30;99.90;;;;;;5017290;28;20047;-59
2023/10/24 02:53:27;;;;;;;14.63;2.63;;;9.30;99.90;;;;;;5016625;28;20132;-58
2023/10/24 02:55:54;;;;;;;20.58;2.92;;;9.30;99.90;;;;;;5034809;28;20049;-60
2023/10/24 02:58:21;;;;;;;12.60;2.47;;;9.30;99.90;;;;;;5016045;28;20051;-59
2023/10/24 03:00:48;;;;;;;16.42;2.25;;;9.30;99.90;;;;;;5016944;28;20136;-59
2023/10/24 03:03:16;;;;;;;10.60;2.10;;;9.30;99.90;;;;;;5016372;28;20041;-59
2023/10/24 03:05:43;;;;;;;14.07;2.78;;;9.30;99.90;;;;;;5015337;28;20362;-58
2023/10/24 03:08:09;;;;;;;11.90;2.03;;;9.30;99.90;;;;;;5016581;28;20049;-58
2023/10/24 03:10:40;;;;;;;20.92;2.75;;;9.20;99.90;;;;;;5016230;28;20043;-58
2023/10/24 03:13:07;;;;;;;10.57;2.47;;;9.20;99.90;;;;;;5016716;28;20060;-59
2023/10/24 03:15:35;;;;;;;13.48;2.30;;;9.20;99.90;;;;;;5015179;28;20508;-59
2023/10/24 03:18:02;;;;;;;16.83;2.50;;;9.20;99.90;;;;;;5014600;28;20045;-58
2023/10/24 03:20:29;;;;;;;13.15;2.55;;;9.10;99.90;;;;;;5032683;28;20128;-59
2023/10/24 03:22:56;;;;;;;15.55;2.60;;;9.20;99.90;;;;;;5029165;28;20040;-59
2023/10/24 03:25:24;;;;;;;;;;;9.20;99.90;;;;;;5032823;28;20065;-60
2023/10/24 03:27:54;;;;;;;17.80;2.97;;;9.20;99.90;;;;;;5042671;28;20290;-59
2023/10/24 03:30:22;;;;;;;11.68;2.47;;;9.20;99.90;;;;;;5033568;28;20049;-59
2023/10/24 03:32:49;;;;;;;14.65;2.40;;;9.20;99.90;;;;;;5021628;28;20387;-59
2023/10/24 03:35:16;;;;;;;13.32;2.15;;;9.30;99.90;;;;;;5026165;28;20127;-59
2023/10/24 03:37:42;;;;;;;21.45;2.67;;;9.20;99.90;;;;;;5026324;28;20056;-59
2023/10/24 03:40:09;;;;;;;16.20;2.40;;;9.20;99.90;;;;;;5023256;28;20116;-58
2023/10/24 03:42:37;;;;;;;;;;;9.20;99.90;;;;;;5034488;28;20050;-59
2023/10/24 03:45:04;;;;;;;22.23;3.55;;;9.20;99.90;;;;;;5010162;28;21326;-59
2023/10/24 03:47:31;;;;;;;10.15;1.95;;;9.20;99.90;;;;;;5032067;28;20382;-59
2023/10/24 03:49:58;;;;;;;18.00;2.85;;;9.20;99.90;;;;;;5029393;28;20046;-59
2023/10/24 03:52:25;;;;;;;15.38;2.22;;;9.20;99.90;;;;;;5033604;28;20041;-58
2023/10/24 03:54:52;;;;;;;17.70;3.03;;;9.10;99.90;;;;;;5027138;28;20033;-59
2023/10/24 03:57:19;;;;;;;10.73;2.15;;;9.20;99.90;;;;;;5019592;28;20042;-58
2023/10/24 03:59:45;;;;;;;26.10;2.22;;;9.20;99.90;;;;;;5022035;28;20057;-57
2023/10/24 04:02:12;;;;;;;6.60;2.03;;;9.20;99.90;;;;;;5033458;28;20392;-59
2023/10/24 04:04:39;;;;;;;11.93;2.67;;;9.20;99.90;;;;;;5025048;28;20061;-58
2023/10/24 04:07:06;;;;;;;9.50;1.92;;;9.20;99.90;;;;;;5025796;28;20482;-60
2023/10/24 04:09:33;;;;;;;7.43;1.58;;;9.30;99.90;;;;;;5033397;28;20037;-60
2023/10/24 04:12:06;;;;;;;9.88;2.65;;;9.30;99.90;;;;;;5031862;28;20038;-59
2023/10/24 04:14:33;;;;;;;17.70;3.03;;;9.40;99.90;;;;;;5032761;28;20064;-58
2023/10/24 04:17:00;;;;;;;13.02;3.42;;;9.40;99.90;;;;;;5033203;28;20065;-60
2023/10/24 04:19:26;;;;;;;21.38;2.53;;;9.50;99.90;;;;;;5031623;28;20033;-59
2023/10/24 04:21:53;;;;;;;9.65;2.45;;;9.50;99.90;;;;;;5024772;28;20684;-59
2023/10/24 04:24:20;;;;;;;12.05;2.25;;;9.40;99.90;;;;;;5030324;28;20041;-59
2023/10/24 04:26:47;;;;;;;19.88;2.53;;;9.40;99.90;;;;;;5021353;28;20052;-59
2023/10/24 04:29:14;;;;;;;9.68;2.22;;;9.30;99.90;;;;;;5029674;28;20045;-59
2023/10/24 04:31:41;;;;;;;11.85;2.92;;;9.30;99.90;;;;;;5026209;28;20041;-59
2023/10/24 04:34:08;;;;;;;11.65;2.92;;;9.30;99.90;;;;;;5040204;28;20049;-59
2023/10/24 04:36:34;;;;;;;10.25;3.22;;;9.30;99.90;;;;;;5019877;28;20130;-60
2023/10/24 04:39:01;;;;;;;11.40;2.63;;;9.30;99.90;;;;;;5021002;28;20069;-57
2023/10/24 04:41:28;;;;;;;9.43;2.03;;;9.30;99.90;;;;;;5018977;28;20490;-57
2023/10/24 04:43:55;;;;;;;12.90;3.03;;;9.30;99.90;;;;;;5025147;28;20402;-57
2023/10/24 04:46:22;;;;;;;16.48;3.08;;;9.30;99.90;;;;;;5035768;28;21593;-59
2023/10/24 04:48:49;;;;;;;8.38;2.53;;;9.40;99.90;;;;;;5007961;28;20045;-58
2023/10/24 04:51:16;;;;;;;19.95;2.88;;;9.40;99.90;;;;;;5002418;28;20045;-59
2023/10/24 04:53:43;;;;;;;13.00;3.42;;;9.40;99.90;;;;;;5011016;28;20042;-59
2023/10/24 04:56:10;;;;;;;10.95;2.33;;;9.50;99.90;;;;;;5020384;28;20034;-59
2023/10/24 04:58:36;;;;;;;11.60;2.50;;;9.50;99.90;;;;;;5015609;28;20052;-59
2023/10/24 05:01:03;;;;;;;12.52;2.53;;;9.50;99.90;;;;;;5021626;28;20050;-59
2023/10/24 05:03:35;;;;;;;18.13;3.22;;;9.50;99.90;;;;;;5022971;28;20379;-55
2023/10/24 05:06:02;;;;;;;14.68;2.50;;;9.50;99.90;;;;;;5013647;28;20126;-58
2023/10/24 05:08:29;;;;;;;11.23;2.80;;;9.50;99.90;;;;;;5013892;28;20382;-59
2023/10/24 05:10:57;;;;;;;12.48;2.75;;;9.60;99.90;;;;;;5024665;28;20030;-59
2023/10/24 05:13:23;;;;;;;17.25;3.50;;;9.70;99.90;;;;;;5028908;28;20542;-59
2023/10/24 05:15:50;;;;;;;13.25;3.40;;;9.70;99.90;;;;;;5024260;28;20104;-59
2023/10/24 05:18:17;;;;;;;18.23;3.60;;;9.80;99.90;;;;;;5031345;28;20056;-60
2023/10/24 05:20:45;;;;;;;15.85;4.05;;;9.80;99.90;;;;;;5022286;28;20034;-59
2023/10/24 05:23:12;;;;;;;16.08;3.92;;;9.80;99.90;;;;;;5026698;28;20050;-59
2023/10/24 05:25:41;;;;;;;19.88;5.70;;;9.90;99.90;;;;;;5033860;28;20049;-60
2023/10/24 05:28:10;;;;;;;20.73;4.25;;;9.90;99.90;;;;;;5033604;28;20120;-58
2023/10/24 05:30:38;;;;;;;20.80;4.30;;;9.90;99.90;;;;;;5028900;28;20042;-57
2023/10/24 05:33:05;;;;;;;19.33;3.97;;;9.90;99.90;;;;;;5027778;28;20046;-59
2023/10/24 05:35:32;;;;;;;13.80;3.25;;;9.80;99.90;;;;;;5030844;28;20038;-57
2023/10/24 05:37:59;;;;;;;16.02;3.42;;;9.80;99.90;;;;;;5024414;28;20046;-60
2023/10/24 05:40:26;;;;;;;15.10;3.58;;;9.90;99.90;;;;;;5039237;28;20049;-59
2023/10/24 05:42:53;;;;;;;12.40;3.22;;;9.80;99.90;;;;;;5030390;28;20073;-58
2023/10/24 05:45:22;;;;;;;11.60;2.70;;;9.80;99.90;;;;;;5030996;28;20048;-59
2023/10/24 05:47:48;;;;;;;12.23;2.42;;;9.80;99.90;;;;;;5025748;28;20112;-58
2023/10/24 05:50:17;;;;;;;11.30;2.80;;;9.80;99.90;;;;;;5031176;28;20525;-58
2023/10/24 05:52:43;;;;;;;14.48;3.67;;;9.80;99.90;;;;;;5030941;28;20037;-60
2023/10/24 05:55:10;;;;;;;12.20;2.55;;;9.80;99.90;;;;;;5017334;28;20041;-59
2023/10/24 05:57:37;;;;;;;16.17;3.22;;;9.90;99.90;;;;;;5028828;28;20073;-58
2023/10/24 06:00:05;;;;;;;13.55;3.45;;;9.90;99.90;;;;;;5024246;28;20038;-58
2023/10/24 06:02:33;;;;;;;19.20;2.72;;;9.90;99.90;;;;;;5019228;28;20045;-60
2023/10/24 06:05:00;;;;;;;10.90;2.55;;;9.90;99.90;;;;;;5024991;28;20038;-59
2023/10/24 06:07:27;;;;;;;17.10;2.97;;;9.90;99.90;;;;;;5020774;28;20038;-59
2023/10/24 06:09:54;;;;;;;11.30;2.78;;;10.00;99.90;;;;;;5024652;28;20124;-60
2023/10/24 06:12:21;;;;;;;9.88;2.28;;;10.00;99.90;;;;;;5024854;28;20120;-57
2023/10/24 06:14:48;;;;;;;12.25;3.63;;;10.00;99.90;;;;;;5022444;28;20037;-60
2023/10/24 06:17:17;;;;;;;14.63;2.55;;;10.00;99.90;;;;;;5022023;28;20129;-59
2023/10/24 06:19:46;;;;;;;13.27;3.10;;;10.00;99.90;;;;;;5031790;28;20507;-59
2023/10/24 06:22:13;;;;;;;19.83;2.97;;;10.00;99.90;;;;;;5023292;28;20058;-58
2023/10/24 06:24:40;;;;;;;11.52;2.70;;;9.90;99.90;;;;;;5027952;28;20042;-59
2023/10/24 06:27:09;;;;;;;16.60;3.33;;;9.90;99.90;;;;;;5034819;28;20049;-59
2023/10/24 06:29:35;;;;;;;26.25;3.65;;;9.90;99.90;;;;;;5034816;28;20037;-60
2023/10/24 06:32:02;;;;;;;11.35;2.83;;;9.90;99.90;;;;;;5027160;28;20041;-59
2023/10/24 06:34:29;;;;;;;12.32;3.38;;;9.90;99.90;;;;;;5034519;28;20037;-59
2023/10/24 06:36:57;;;;;;;13.68;3.83;;;9.90;99.90;;;;;;5034209;28;20570;-58
2023/10/24 06:39:24;;;;;;;13.50;3.58;;;10.00;99.90;;;;;;5030564;28;20041;-59
2023/10/24 06:41:54;;;;;;;17.30;2.65;;;10.00;99.90;;;;;;5027052;28;20046;-58
2023/10/24 06:44:21;;;;;;;18.90;5.40;;;10.10;99.90;;;;;;5033082;28;20052;-58
2023/10/24 06:46:49;;;;;;;15.82;4.40;;;10.10;99.90;;;;;;5034313;28;20302;-57
2023/10/24 06:49:16;;;;;;;17.23;5.80;;;10.20;99.90;;;;;;5034110;28;20129;-58
2023/10/24 06:51:43;;;;;;;13.82;2.78;;;10.20;99.90;;;;;;5033083;28;20037;-58
2023/10/24 06:54:10;;;;;;;14.63;3.03;;;10.10;99.90;;;;;;5034162;28;20046;-59
2023/10/24 06:56:36;;;;;;;19.70;3.40;;;10.10;99.90;;;;;;5032598;28;20049;-59
2023/10/24 06:59:03;;;;;;;18.30;3.72;;;10.20;99.90;;;;;;5012535;28;20406;-60
2023/10/24 07:01:30;;;;;;;16.30;3.70;;;10.20;99.90;;;;;;5033284;28;20156;-58
2023/10/24 07:04:00;;;;;;;22.38;6.10;;;10.20;99.90;;;;;;5033326;28;20033;-58
2023/10/24 07:06:27;;;;;;;9.88;4.00;;;10.20;99.90;;;;;;5032817;28;20125;-59
2023/10/24 07:08:54;;;;;;;14.25;4.20;;;10.30;99.90;;;;;;5025977;28;20037;-60
2023/10/24 07:11:21;;;;;;;;;;;10.30;99.90;;;;;;5034044;28;20048;-59
2023/10/24 07:13:48;;;;;;;16.75;5.65;;;10.30;99.90;;;;;;5033988;28;20304;-59
2023/10/24 07:16:16;;;;;;;18.33;4.03;;;10.40;99.90;;;;;;5025889;28;20048;-59
2023/10/24 07:18:43;;;;;;;18.25;4.00;;;10.40;99.90;;;;;;5033306;28;20064;-58
2023/10/24 07:21:10;;;;;;;18.27;4.47;;;10.50;99.90;;;;;;5032870;28;20034;-59
2023/10/24 07:23:38;;;;;;;10.10;4.40;;;10.50;99.90;;;;;;5027917;28;20038;-58
2023/10/24 07:26:05;;;;;;;14.32;4.70;;;10.50;99.90;;;;;;5033897;28;20041;-59
2023/10/24 07:28:31;;;;;;;20.33;5.07;;;10.60;99.90;;;;;;5033653;28;20037;-59
2023/10/24 07:30:58;;;;;;;15.60;3.45;;;10.60;99.90;;;;;;5029849;28;20099;-59
2023/10/24 07:33:25;;;;;;;22.83;3.58;;;10.60;99.90;;;;;;5029110;28;20410;-59
2023/10/24 07:35:52;;;;;;;24.45;4.93;;;10.70;99.90;;;;;;5033225;28;20057;-58
2023/10/24 07:38:19;;;;;;;12.77;4.03;;;10.70;99.90;;;;;;5033503;28;20049;-59
2023/10/24 07:40:47;;;;;;;16.25;4.10;;;10.70;99.90;;;;;;5032435;28;20413;-59
2023/10/24 07:43:14;;;;;;;17.83;4.30;;;10.70;99.90;;;;;;5033367;28;20139;-58
2023/10/24 07:45:41;;;;;;;10.88;3.80;;;10.60;99.90;;;;;;5032981;28;20060;-58
2023/10/24 07:48:08;;;;;;;13.15;4.20;;;10.60;99.90;;;;;;5031091;28;20487;-60
2023/10/24 07:50:35;;;;;;;16.58;4.15;;;10.50;99.90;;;;;;5033242;28;20044;-59
2023/10/24 07:53:01;;;;;;;20.63;4.43;;;10.60;99.90;;;;;;5033362;28;20042;-59
2023/10/24 07:55:28;;;;;;;18.23;4.47;;;10.60;99.90;;;;;;5033075;28;20413;-59
2023/10/24 07:57:55;;;;;;;24.13;5.45;;;10.60;99.90;;;;;;5031791;28;20030;-59
2023/10/24 08:00:22;;;;;;;22.40;5.82;;;10.70;99.90;;;;;;5030939;28;20072;-59
2023/10/24 08:02:49;;;;;;;26.52;6.35;;;10.70;99.90;;;;;;5031693;28;20053;-59
2023/10/24 08:05:16;;;;;;;22.73;6.40;;;10.70;99.90;;;;;;5031836;28;20037;-59
2023/10/24 08:07:42;;;;;;;19.38;6.00;;;10.80;99.90;;;;;;5032776;28;20038;-58
2023/10/24 08:10:09;;;;;;;14.05;5.72;;;10.80;99.90;;;;;;5029896;28;20048;-59
2023/10/24 08:12:36;;;;;;;17.10;5.32;;;10.90;99.90;;;;;;5019567;28;20483;-58
2023/10/24 08:15:03;;;;;;;17.08;5.82;;;10.90;99.90;;;;;;5031573;28;20490;-58
2023/10/24 08:17:30;;;;;;;20.65;7.47;;;10.90;99.90;;;;;;5031276;28;20048;-59
2023/10/24 08:19:57;;;;;;;;;;;10.90;99.90;;;;;;5030545;28;20045;-59
2023/10/24 08:22:24;;;;;;;21.73;6.32;;;10.90;99.90;;;;;;5027385;28;20004;-59
2023/10/24 08:24:51;;;;;;;26.80;5.88;;;10.90;99.90;;;;;;5032346;28;20041;-59
2023/10/24 08:27:18;;;;;;;20.48;5.65;;;11.00;99.90;;;;;;5032193;28;20037;-60
2023/10/24 08:29:45;;;;;;;23.33;7.03;;;11.00;99.90;;;;;;5026324;28;20121;-59
2023/10/24 08:32:11;;;;;;;21.70;8.70;;;10.90;99.90;;;;;;5031820;28;20033;-59
2023/10/24 08:34:41;;;;;;;31.30;7.43;;;11.00;99.90;;;;;;5031782;28;20405;-59
2023/10/24 08:37:09;;;;;;;19.20;6.90;;;11.00;99.90;;;;;;5031897;28;20509;-59
2023/10/24 08:39:36;;;;;;;22.85;8.10;;;11.00;99.90;;;;;;5028859;28;20033;-57
2023/10/24 08:42:03;;;;;;;22.58;5.97;;;11.10;99.90;;;;;;5024749;28;20043;-60
2023/10/24 08:44:30;;;;;;;;;;;11.10;99.90;;;;;;5032621;28;20091;-59
2023/10/24 08:46:57;;;;;;;21.15;6.30;;;11.10;99.90;;;;;;5031027;28;19956;-59
2023/10/24 08:49:25;;;;;;;28.13;6.20;;;11.10;99.90;;;;;;5032204;28;20379;-59
2023/10/24 08:51:52;;;;;;;19.48;6.07;;;11.10;99.90;;;;;;5031816;28;20100;-59
2023/10/24 08:54:18;;;;;;;21.10;6.00;;;11.10;99.90;;;;;;5031761;28;20490;-59
2023/10/24 08:56:46;;;;;;;24.42;6.07;;;11.20;99.90;;;;;;5022406;28;20046;-58
2023/10/24 08:59:16;;;;;;;18.85;6.28;;;11.20;99.90;;;;;;5019616;28;20537;-59
2023/10/24 09:01:44;;;;;;;27.75;7.75;;;11.30;99.90;;;;;;5022022;28;20046;-57
2023/10/24 09:04:11;;;;;;;19.63;6.82;;;11.30;99.90;;;;;;5030185;28;20083;-59
2023/10/24 09:06:39;;;;;;;25.52;8.75;;;11.30;99.90;;;;;;5031050;28;20093;-56
2023/10/24 09:09:05;;;;;;;33.42;10.32;;;11.40;99.90;;;;;;5025870;28;20151;-59
2023/10/24 09:11:56;;;;;;;33.47;11.63;;;11.50;99.90;;;;;;5027468;28;20041;-59
2023/10/24 09:14:25;;;;;;;24.30;6.93;;;11.50;99.90;;;;;;5025508;28;20482;-58
2023/10/24 09:16:53;;;;;;;24.63;6.63;;;11.50;99.90;;;;;;5028852;28;20431;-58
2023/10/24 09:19:24;;;;;;;17.52;6.03;;;11.50;99.90;;;;;;5030291;28;20061;-57
2023/10/24 09:21:51;;;;;;;20.10;5.72;;;11.50;99.90;;;;;;5031662;28;20049;-59
2023/10/24 09:24:32;;;;;;;24.15;5.70;;;11.50;99.90;;;;;;5031088;28;20156;-59
2023/10/24 09:27:02;;;;;;;21.02;5.40;;;11.50;99.90;;;;;;5028966;28;20030;-59
2023/10/24 09:29:31;;;;;;;30.10;6.50;;;11.50;99.90;;;;;;5031452;28;20045;-59
2023/10/24 09:31:58;;;;;;;20.02;5.43;;;11.50;99.90;;;;;;5030147;28;20509;-60
2023/10/24 09:34:27;;;;;;;22.58;5.63;;;11.60;99.90;;;;;;5031247;28;20054;-58
2023/10/24 09:37:06;;;;;;;23.42;5.93;;;11.60;99.90;;;;;;5030840;28;20076;-59
2023/10/24 09:39:59;;;;;;;16.65;6.35;;;11.70;99.90;;;;;;5027393;28;20056;-59
2023/10/24 09:42:31;;;;;;;18.92;5.68;;;11.70;99.90;;;;;;5025159;28;20080;-56
2023/10/24 09:45:07;;;;;;;20.80;6.30;;;11.70;99.90;;;;;;5030530;28;20064;-59
2023/10/24 09:47:37;;;;;;;13.75;5.50;;;11.80;99.90;;;;;;5028917;28;20124;-59
2023/10/24 09:50:09;;;;;;;16.77;5.45;;;11.80;99.90;;;;;;5023231;28;20069;-59
2023/10/24 09:52:38;;;;;;;21.90;5.53;;;11.80;99.90;;;;;;5013444;28;20140;-59
2023/10/24 09:55:07;;;;;;;21.70;5.90;;;11.80;99.90;;;;;;5030590;28;20520;-59
2023/10/24 09:57:35;;;;;;;20.35;6.43;;;11.80;99.90;;;;;;5029603;28;20038;-59
2023/10/24 10:00:04;;;;;;;16.13;5.78;;;11.80;99.90;;;;;;5030876;28;20053;-57
2023/10/24 10:02:40;;;;;;;25.10;6.72;;;11.90;99.90;;;;;;5030790;28;20115;-59
2023/10/24 10:05:07;;;;;;;26.10;5.90;;;11.90;99.90;;;;;;5029634;28;20037;-56
2023/10/24 10:07:36;;;;;;;26.23;6.43;;;11.90;99.90;;;;;;5026228;28;20048;-57
2023/10/24 10:10:05;;;;;;;16.95;6.28;;;11.90;99.90;;;;;;5030884;28;20037;-58
2023/10/24 10:12:33;;;;;;;18.98;5.78;;;12.00;99.90;;;;;;5031202;28;20109;-60
2023/10/24 10:15:09;;;;;;;26.83;6.18;;;12.00;99.90;;;;;;5028717;28;20054;-60
2023/10/24 10:17:46;;;;;;;29.45;6.60;;;11.90;99.90;;;;;;5030458;28;20037;-59
2023/10/24 10:20:32;;;;;;;30.58;6.45;;;12.00;99.90;;;;;;5022796;28;20049;-58
2023/10/24 10:23:09;;;;;;;22.30;6.30;;;12.00;99.90;;;;;;5026410;28;20072;-59
2023/10/24 10:25:59;;;;;;;21.88;7.47;;;12.10;99.90;;;;;;5030714;28;20034;-59
2023/10/24 10:29:03;;;;;;;22.38;8.20;;;12.10;99.90;;;;;;5012917;28;20317;-59
2023/10/24 10:31:50;;;;;;;24.15;8.95;;;12.20;99.90;;;;;;5025243;28;20517;-59
2023/10/24 10:34:37;;;;;;;20.85;7.18;;;12.20;99.90;;;;;;5025802;28;20056;-57
2023/10/24 10:37:05;;;;;;;21.50;6.88;;;12.20;99.90;;;;;;5030445;28;20049;-59
2023/10/24 10:39:32;;;;;;;19.38;6.30;;;12.10;99.90;;;;;;5026215;28;20099;-59
2023/10/24 10:41:58;;;;;;;25.30;6.72;;;12.20;99.90;;;;;;5028860;28;20049;-59
2023/10/24 10:44:37;;;;;;;27.35;7.13;;;12.10;99.90;;;;;;5030223;28;20041;-59
2023/10/24 10:47:13;;;;;;;27.77;11.07;;;12.20;99.90;;;;;;5030643;28;20046;-59
2023/10/24 10:49:50;;;;;;;35.00;11.23;;;12.10;99.90;;;;;;5027964;28;20050;-59
2023/10/24 10:52:29;;;;;;;39.47;14.63;;;12.20;99.90;;;;;;5023023;28;20045;-59
2023/10/24 10:55:20;;;;;;;32.92;11.35;;;12.20;99.90;;;;;;5032866;28;20050;-59
2023/10/24 10:58:17;;;;;;;23.17;7.03;;;12.30;99.90;;;;;;5031868;28;20048;-59
2023/10/24 11:01:00;;;;;;;26.75;6.65;;;12.30;99.90;;;;;;5029034;28;20132;-59
2023/10/24 11:03:43;;;;;;;22.02;6.47;;;12.40;99.90;;;;;;5032095;28;20461;-58
2023/10/24 11:06:16;;;;;;;16.83;6.45;;;12.40;99.90;;;;;;5034252;28;20044;-58
2023/10/24 11:09:07;;;;;;;21.77;6.47;;;12.50;99.90;;;;;;5033375;28;20062;-59
2023/10/24 11:11:33;;;;;;;20.90;6.25;;;12.50;99.90;;;;;;5028982;28;20069;-59
2023/10/24 11:14:17;;;;;;;20.83;6.30;;;12.60;99.90;;;;;;5033665;28;20057;-57
2023/10/24 11:16:46;;;;;;;19.88;7.13;;;12.50;99.90;;;;;;5033960;28;20044;-60
2023/10/24 11:19:24;;;;;;;27.73;8.23;;;12.50;99.90;;;;;;5032766;28;20553;-59
2023/10/24 11:21:55;;;;;;;22.17;7.07;;;12.60;99.90;;;;;;5033987;28;20488;-59
2023/10/24 11:24:22;;;;;;;16.48;6.40;;;12.60;99.90;;;;;;5025112;28;20061;-59
2023/10/24 11:27:04;;;;;;;29.08;7.32;;;12.60;99.90;;;;;;5033802;28;20056;-60
2023/10/24 11:29:31;;;;;;;25.52;8.27;;;12.60;99.90;;;;;;5028954;28;20116;-60
2023/10/24 11:31:58;;;;;;;26.27;8.30;;;12.60;99.90;;;;;;5032002;28;20364;-60
2023/10/24 11:34:25;;;;;;;22.58;7.63;;;12.60;99.90;;;;;;5033544;28;20105;-59
2023/10/24 11:36:52;;;;;;;25.75;8.48;;;12.70;99.90;;;;;;5033153;28;20041;-60
2023/10/24 11:39:19;;;;;;;20.98;7.07;;;12.70;99.90;;;;;;5029297;28;20056;-59
2023/10/24 11:41:46;;;;;;;21.45;6.82;;;12.60;99.90;;;;;;5014716;28;20056;-59
2023/10/24 11:44:14;;;;;;;22.65;6.60;;;12.60;99.90;;;;;;5032806;28;20045;-58
2023/10/24 11:46:42;;;;;;;29.85;7.43;;;12.60;99.90;;;;;;5033153;28;20046;-58
2023/10/24 11:49:10;;;;;;;23.92;8.00;;;12.60;99.90;;;;;;5029270;28;20195;-57
2023/10/24 11:51:38;;;;;;;19.73;7.00;;;12.60;99.90;;;;;;5033379;28;20065;-58
2023/10/24 11:54:07;;;;;;;20.95;6.55;;;12.60;99.90;;;;;;5032753;28;20204;-60
2023/10/24 11:56:34;;;;;;;20.77;6.10;;;12.60;99.90;;;;;;5031573;28;20064;-59
2023/10/24 11:59:03;;;;;;;28.98;7.30;;;12.60;99.90;;;;;;5030192;28;20052;-59
2023/10/24 12:01:31;;;;;;;23.08;7.30;;;12.60;99.90;;;;;;5032753;28;20037;-59
2023/10/24 12:04:00;;;;;;;18.88;6.85;;;12.50;99.90;;;;;;5032439;28;20116;-59
2023/10/24 12:06:28;;;;;;;19.73;7.15;;;12.60;99.90;;;;;;5027166;28;20061;-60
2023/10/24 12:08:57;;;;;;;21.60;8.00;;;12.60;99.90;;;;;;5033296;28;20042;-58
2023/10/24 12:11:24;;;;;;;16.05;6.70;;;12.60;99.90;;;;;;5033017;28;20121;-59
2023/10/24 12:13:51;;;;;;;21.25;7.13;;;12.60;99.90;;;;;;5027639;28;20045;-59
2023/10/24 12:16:18;;;;;;;21.27;7.57;;;12.70;99.90;;;;;;5032571;28;20045;-59
2023/10/24 12:18:45;;;;;;;21.83;7.97;;;12.70;99.90;;;;;;5032554;28;20050;-59
2023/10/24 12:21:12;;;;;;;24.45;8.00;;;12.70;99.90;;;;;;5032649;28;20053;-58
2023/10/24 12:23:39;;;;;;;25.67;9.23;;;12.80;99.90;;;;;;5030583;28;20120;-57
2023/10/24 12:26:07;;;;;;;22.67;8.90;;;12.80;99.90;;;;;;5014857;28;20056;-58
2023/10/24 12:28:36;;;;;;;28.42;7.75;;;12.90;99.90;;;;;;5032619;28;20045;-59
2023/10/24 12:31:03;;;;;;;28.75;7.80;;;12.90;99.90;;;;;;5031097;28;20044;-60
2023/10/24 12:33:31;;;;;;;23.38;8.50;;;12.90;99.90;;;;;;5032165;28;20044;-59
2023/10/24 12:35:59;;;;;;;20.02;7.68;;;12.90;99.90;;;;;;5032409;28;20210;-59
2023/10/24 12:38:31;;;;;;;21.60;7.57;;;13.00;99.90;;;;;;5028625;28;20060;-59
2023/10/24 12:40:58;;;;;;;27.85;7.35;;;13.00;99.90;;;;;;5032143;28;20081;-59
2023/10/24 12:43:25;;;;;;;25.98;8.02;;;13.00;99.90;;;;;;5030840;28;20065;-59
2023/10/24 12:45:51;;;;;;;21.38;7.07;;;13.10;99.90;;;;;;5031681;28;20045;-59
2023/10/24 12:48:18;;;;;;;23.42;7.57;;;13.10;99.90;;;;;;5021182;28;20104;-57
2023/10/24 12:50:46;;;;;;;18.02;7.53;;;13.20;99.90;;;;;;5032337;28;20046;-59